Potosi, Missouri
Current Conditions -  °F | °C
As of 11:55 PM on Thursday 27 Nov 2014 (Local Time) from KFAM Reporting Station
Clear Clear  
Wind Chill: -6°   Ceiling: Unl
Heat Index: -2°   Visibility: 10mi
Dew Point: -4°   Wind: 7mph
Humidity: 86%   Direction: 130°SE
Pressure: 30.38"   Gusts: NA
Location:  37.94°N, 90.79°W
Report Text: KFAM 280555Z AUTO 13006KT 10SM CLR M02/M04 A3038 RMK AO1 10000 21030 57017
Loading
Personal Weather Stations






























Interactive Weather Map New forecast layout! Learn more

10-Day Weather Forecast

Advertisements
Track Severe Weather on mobile